createdAt,value
2022-12-23T00:00:46.365Z,180.70
2022-12-23T00:03:13.964Z,160.23
2022-12-23T00:05:42.955Z,138.77
2022-12-23T00:08:10.448Z,163.33
2022-12-23T00:10:39.623Z,172.77
2022-12-23T00:13:25.203Z,149.57
2022-12-23T00:16:01.125Z,167.03
2022-12-23T00:18:28.703Z,129.07
2022-12-23T00:21:06.648Z,172.33
2022-12-23T00:23:37.601Z,145.77
2022-12-23T00:26:06.215Z,126.67
2022-12-23T00:28:34.422Z,77.57
2022-12-23T00:31:03.921Z,159.87
2022-12-23T00:33:33.119Z,156.63
2022-12-23T00:36:02.445Z,127.03
2022-12-23T00:38:47.591Z,169.30
2022-12-23T00:41:34.780Z,143.73
2022-12-23T00:44:02.940Z,40.33
2022-12-23T00:46:30.596Z,127.33
2022-12-23T00:49:15.649Z,71.87
2022-12-23T00:51:44.478Z,21.27
2022-12-23T00:54:12.121Z,20.10
2022-12-23T00:56:39.724Z,46.37
2022-12-23T00:59:07.334Z,39.10
2022-12-23T01:01:52.555Z,113.23
2022-12-23T01:04:38.292Z,224.40
2022-12-23T01:07:07.668Z,102.00
2022-12-23T01:09:35.628Z,69.50
2022-12-23T01:12:03.225Z,55.10
2022-12-23T01:14:31.294Z,70.90
2022-12-23T01:16:58.874Z,49.90
2022-12-23T01:19:26.531Z,66.90
2022-12-23T01:21:54.036Z,52.27
2022-12-23T01:24:22.938Z,53.77
2022-12-23T01:26:50.430Z,65.30
2022-12-23T01:29:18.023Z,47.43
2022-12-23T01:31:45.569Z,82.23
2022-12-23T01:34:13.145Z,113.03
2022-12-23T01:36:40.637Z,78.67
2022-12-23T01:39:08.137Z,87.77
2022-12-23T01:41:54.369Z,85.10
2022-12-23T01:44:50.897Z,93.50
2022-12-23T01:47:23.204Z,92.80
2022-12-23T01:49:54.095Z,67.73
2022-12-23T01:52:22.442Z,100.17
2022-12-23T01:54:50.225Z,74.63
2022-12-23T01:57:19.082Z,32.47
2022-12-23T02:00:04.283Z,39.33
2022-12-23T02:02:53.047Z,40.67
2022-12-23T02:05:20.706Z,39.77
2022-12-23T02:08:05.817Z,44.87
2022-12-23T02:10:43.140Z,68.27
2022-12-23T02:13:17.515Z,53.60
2022-12-23T02:16:09.250Z,54.23
2022-12-23T02:18:58.202Z,93.50
2022-12-23T02:21:38.580Z,89.33
2022-12-23T02:24:31.603Z,111.53
2022-12-23T02:27:11.455Z,47.60
2022-12-23T02:30:06.414Z,46.80
2022-12-23T02:32:50.967Z,52.53
2022-12-23T02:35:28.726Z,64.93
2022-12-23T02:38:02.920Z,39.57
2022-12-23T02:40:39.663Z,52.77
2022-12-23T02:43:14.538Z,40.70
2022-12-23T02:45:47.130Z,88.70
2022-12-23T02:48:23.035Z,81.27
2022-12-23T02:50:54.353Z,54.00
2022-12-23T02:53:28.242Z,56.80
2022-12-23T02:55:58.051Z,77.03
2022-12-23T02:58:30.923Z,91.70
2022-12-23T03:01:01.459Z,86.83
2022-12-23T03:03:30.416Z,78.50
2022-12-23T03:05:58.108Z,59.50
2022-12-23T03:08:30.798Z,57.87
2022-12-23T03:11:06.717Z,42.63
2022-12-23T03:13:47.341Z,42.83
2022-12-23T03:16:21.973Z,69.80
2022-12-23T03:19:05.374Z,89.17
2022-12-23T03:21:38.885Z,77.40
2022-12-23T03:24:16.371Z,109.67
2022-12-23T03:26:50.517Z,103.83
2022-12-23T03:29:23.113Z,99.80
2022-12-23T03:31:52.747Z,76.40
2022-12-23T03:34:26.299Z,82.03
2022-12-23T03:36:58.162Z,70.97
2022-12-23T03:39:30.836Z,93.23
2022-12-23T03:42:03.025Z,98.23
2022-12-23T03:44:33.647Z,92.17
2022-12-23T03:47:06.850Z,67.67
2022-12-23T03:49:41.256Z,109.40
2022-12-23T03:52:17.283Z,106.67
2022-12-23T03:54:52.401Z,71.80
2022-12-23T03:57:21.502Z,97.37
2022-12-23T03:59:51.557Z,103.87
2022-12-23T04:02:25.669Z,84.33
2022-12-23T04:05:11.419Z,53.00
2022-12-23T04:07:43.350Z,74.43
2022-12-23T04:10:12.547Z,57.57
2022-12-23T04:12:41.106Z,71.77
2022-12-23T04:15:12.621Z,71.43
2022-12-23T04:17:40.748Z,75.30
2022-12-23T04:20:11.331Z,86.07
2022-12-23T04:22:39.516Z,86.50
2022-12-23T04:25:07.823Z,85.53
2022-12-23T04:27:35.311Z,32.87
2022-12-23T04:30:02.882Z,40.80
2022-12-23T04:32:30.367Z,27.20
2022-12-23T04:34:57.852Z,25.53
2022-12-23T04:37:26.819Z,49.53
2022-12-23T04:39:54.300Z,80.57
2022-12-23T04:42:21.960Z,45.47
2022-12-23T04:44:49.512Z,29.70
2022-12-23T04:47:17.009Z,27.53
2022-12-23T04:49:44.531Z,17.73
2022-12-23T04:52:12.009Z,22.63
2022-12-23T04:54:45.977Z,15.83
2022-12-23T04:57:14.070Z,25.23
2022-12-23T04:59:41.634Z,18.53
2022-12-23T05:02:09.266Z,31.67
2022-12-23T05:04:36.916Z,24.90
2022-12-23T05:07:04.466Z,31.07
2022-12-23T05:09:31.950Z,17.77
2022-12-23T05:12:00.786Z,13.90
2022-12-23T05:14:28.286Z,17.90
2022-12-23T05:16:55.839Z,13.43
2022-12-23T05:19:23.446Z,24.90
2022-12-23T05:21:50.936Z,8.87
2022-12-23T05:24:18.425Z,12.87
2022-12-23T05:26:50.746Z,12.35
2022-12-23T05:29:21.779Z,11.27
2022-12-23T05:31:49.288Z,10.43
2022-12-23T05:34:16.773Z,9.93
2022-12-23T05:36:44.267Z,11.67
2022-12-23T05:39:11.870Z,9.30
2022-12-23T05:41:39.414Z,12.00
2022-12-23T05:44:06.977Z,9.20
2022-12-23T05:46:36.136Z,9.67
2022-12-23T05:49:03.708Z,10.30
2022-12-23T05:51:31.486Z,9.93
2022-12-23T05:53:59.071Z,14.47
2022-12-23T05:56:26.558Z,12.77
2022-12-23T05:58:54.258Z,12.73
2022-12-23T06:01:21.751Z,15.20
2022-12-23T06:03:50.653Z,16.27
2022-12-23T06:06:18.228Z,18.33
2022-12-23T06:08:45.704Z,18.10
2022-12-23T06:11:13.734Z,24.57
2022-12-23T06:13:41.215Z,16.67
2022-12-23T06:16:08.840Z,18.33
2022-12-23T06:18:36.412Z,16.73
2022-12-23T06:21:05.728Z,17.10
2022-12-23T06:23:33.202Z,20.27
2022-12-23T06:26:01.196Z,18.37
2022-12-23T06:28:29.293Z,16.53
2022-12-23T06:30:57.212Z,15.50
2022-12-23T06:33:25.558Z,17.33
2022-12-23T06:35:53.079Z,14.02
2022-12-23T06:38:21.924Z,15.90
2022-12-23T06:40:49.462Z,16.07
2022-12-23T06:43:16.990Z,19.27
2022-12-23T06:45:47.597Z,15.85
2022-12-23T06:48:15.489Z,15.50
2022-12-23T06:50:43.499Z,16.77
2022-12-23T06:53:11.053Z,17.90
2022-12-23T06:55:40.025Z,16.87
2022-12-23T06:58:07.886Z,17.27
2022-12-23T07:00:35.372Z,19.47
2022-12-23T07:03:02.937Z,22.37
2022-12-23T07:05:36.697Z,19.63
2022-12-23T07:08:04.795Z,21.05
2022-12-23T07:10:32.285Z,20.40
2022-12-23T07:13:02.403Z,18.00
2022-12-23T07:15:29.891Z,19.02
2022-12-23T07:17:57.368Z,18.42
2022-12-23T07:20:24.900Z,36.58
2022-12-23T07:22:54.915Z,51.20
2022-12-23T07:25:22.581Z,29.77
2022-12-23T07:27:53.464Z,34.95
2022-12-23T07:30:22.743Z,33.30
2022-12-23T07:32:50.563Z,35.05
2022-12-23T07:35:18.819Z,46.13
2022-12-23T07:37:46.314Z,18.93
2022-12-23T07:40:14.832Z,25.25
2022-12-23T07:42:45.575Z,58.33
2022-12-23T07:45:13.877Z,28.38
2022-12-23T07:47:43.236Z,15.85
2022-12-23T07:50:11.365Z,23.00
2022-12-23T07:52:38.886Z,16.00
2022-12-23T07:55:07.333Z,16.08
2022-12-23T07:57:37.767Z,15.98
2022-12-23T08:00:07.989Z,11.50
2022-12-23T08:02:35.628Z,12.35
2022-12-23T08:05:05.260Z,16.60
2022-12-23T08:07:32.812Z,44.00
2022-12-23T08:10:00.416Z,40.53
2022-12-23T08:12:27.918Z,81.25
2022-12-23T08:14:55.415Z,64.18
2022-12-23T08:17:23.346Z,66.88
2022-12-23T08:19:50.950Z,16.10
2022-12-23T08:22:19.765Z,38.55
2022-12-23T08:24:47.286Z,27.10
2022-12-23T08:27:16.180Z,16.52
2022-12-23T08:29:44.026Z,32.75
2022-12-23T08:32:11.784Z,36.10
2022-12-23T08:34:39.321Z,87.50
2022-12-23T08:37:06.810Z,30.05
2022-12-23T08:39:35.633Z,34.17
2022-12-23T08:42:03.237Z,44.05
2022-12-23T08:44:32.495Z,31.23
2022-12-23T08:47:00.026Z,69.07
2022-12-23T08:49:27.549Z,25.15
2022-12-23T08:51:55.043Z,21.70
2022-12-23T08:54:23.737Z,53.80
2022-12-23T08:56:52.583Z,76.72
2022-12-23T08:59:20.223Z,58.67
2022-12-23T09:01:49.042Z,82.18
2022-12-23T09:04:16.862Z,103.65
2022-12-23T09:06:45.406Z,58.60
2022-12-23T09:09:15.408Z,112.30
2022-12-23T09:11:43.115Z,31.52
2022-12-23T09:14:13.265Z,17.15
2022-12-23T09:16:40.809Z,20.65
2022-12-23T09:19:08.637Z,15.52
2022-12-23T09:21:36.423Z,15.93
2022-12-23T09:24:04.027Z,13.63
2022-12-23T09:26:32.321Z,13.75
2022-12-23T09:28:59.976Z,16.48
2022-12-23T09:31:36.091Z,15.13
2022-12-23T09:34:04.955Z,13.68
2022-12-23T09:36:32.736Z,14.73
2022-12-23T09:39:00.464Z,23.02
2022-12-23T09:41:44.069Z,32.45
2022-12-23T09:44:33.433Z,20.13
2022-12-23T09:47:05.525Z,37.72
2022-12-23T09:49:34.785Z,18.48
2022-12-23T09:52:05.991Z,14.48
2022-12-23T09:54:41.994Z,22.58
2022-12-23T09:57:18.943Z,22.08
2022-12-23T09:59:59.235Z,18.95
2022-12-23T10:02:39.860Z,13.20
2022-12-23T10:05:21.047Z,19.77
2022-12-23T10:07:53.375Z,17.73
2022-12-23T10:10:31.506Z,14.57
2022-12-23T10:13:01.366Z,14.60
2022-12-23T10:15:33.650Z,12.98
2022-12-23T10:18:07.994Z,30.90
2022-12-23T10:20:42.353Z,17.08
2022-12-23T10:23:16.971Z,13.02
2022-12-23T10:25:50.976Z,15.85
2022-12-23T10:28:19.156Z,16.00
2022-12-23T10:31:11.044Z,27.48
2022-12-23T10:33:51.721Z,55.10
2022-12-23T10:36:28.594Z,65.95
2022-12-23T10:39:04.118Z,31.15
2022-12-23T10:41:39.989Z,38.70
2022-12-23T10:44:42.643Z,45.40
2022-12-23T10:47:20.689Z,25.08
2022-12-23T10:49:58.927Z,16.73
2022-12-23T10:52:30.777Z,10.18
2022-12-23T10:54:58.288Z,26.05
2022-12-23T10:57:25.991Z,16.80
2022-12-23T10:59:53.611Z,10.95
2022-12-23T11:02:46.096Z,11.18
2022-12-23T11:05:20.561Z,9.43
2022-12-23T11:07:48.172Z,11.02
2022-12-23T11:10:19.240Z,12.90
2022-12-23T11:12:49.184Z,11.52
2022-12-23T11:15:31.053Z,8.45
2022-12-23T11:18:00.639Z,8.75
2022-12-23T11:20:30.344Z,5.57
2022-12-23T11:23:01.678Z,11.48
2022-12-23T11:25:35.929Z,11.65
2022-12-23T11:28:08.565Z,10.20
2022-12-23T11:30:40.110Z,10.20
2022-12-23T11:33:17.454Z,8.13
2022-12-23T11:35:46.509Z,9.45
2022-12-23T11:38:15.593Z,7.72
2022-12-23T11:40:47.936Z,9.65
2022-12-23T11:43:17.261Z,6.25
2022-12-23T11:45:44.969Z,9.20
2022-12-23T11:48:28.642Z,8.20
2022-12-23T11:51:01.685Z,5.28
2022-12-23T11:53:30.065Z,5.13
2022-12-23T11:56:00.570Z,6.63
2022-12-23T11:58:30.628Z,5.95
2022-12-23T12:01:00.625Z,8.00
2022-12-23T12:03:32.824Z,7.05
2022-12-23T12:06:04.513Z,7.32
2022-12-23T12:08:34.872Z,9.70
2022-12-23T12:11:07.480Z,9.52
2022-12-23T12:13:40.475Z,7.47
2022-12-23T12:16:21.999Z,7.53
2022-12-23T12:18:55.387Z,7.50
2022-12-23T12:21:27.242Z,7.18
2022-12-23T12:24:17.961Z,7.45
2022-12-23T12:26:50.977Z,6.68
2022-12-23T12:29:23.567Z,6.35
2022-12-23T12:31:53.306Z,7.20
2022-12-23T12:34:33.188Z,12.77
2022-12-23T12:37:08.677Z,7.22
2022-12-23T12:39:42.852Z,7.03
2022-12-23T12:42:15.669Z,7.40
2022-12-23T12:44:55.314Z,7.43
2022-12-23T12:47:52.727Z,8.20
2022-12-23T12:50:19.193Z,8.18
2022-12-23T12:52:48.028Z,12.20
2022-12-23T12:55:20.985Z,7.03
2022-12-23T12:57:48.508Z,6.82
2022-12-23T13:00:17.777Z,7.38
2022-12-23T13:03:02.196Z,9.43
2022-12-23T13:05:54.438Z,9.48
2022-12-23T13:08:45.108Z,9.75
2022-12-23T13:11:24.807Z,12.95
2022-12-23T13:14:03.459Z,7.72
2022-12-23T13:16:41.417Z,11.73
2022-12-23T13:19:20.235Z,20.50
2022-12-23T13:21:53.782Z,19.85
2022-12-23T13:24:27.850Z,16.75
2022-12-23T13:27:04.054Z,16.02
2022-12-23T13:29:54.587Z,12.45
2022-12-23T13:32:38.289Z,12.07
2022-12-23T13:35:20.562Z,16.45
2022-12-23T13:37:58.318Z,19.15
2022-12-23T13:40:38.803Z,12.52
2022-12-23T13:43:13.510Z,13.18
2022-12-23T13:45:42.325Z,13.75
2022-12-23T13:48:32.688Z,17.33
2022-12-23T13:51:08.531Z,20.83
2022-12-23T13:53:50.585Z,47.40
2022-12-23T13:56:30.196Z,43.78
2022-12-23T13:58:58.641Z,32.17
2022-12-23T14:01:43.558Z,33.05
2022-12-23T14:04:32.784Z,56.63
2022-12-23T14:07:02.089Z,56.55
2022-12-23T14:09:33.158Z,42.55
2022-12-23T14:12:14.234Z,87.90
2022-12-23T14:14:50.679Z,113.28
2022-12-23T14:17:29.707Z,93.00
2022-12-23T14:20:08.228Z,112.50
2022-12-23T14:22:46.151Z,71.47
2022-12-23T14:25:38.341Z,80.57
2022-12-23T14:28:21.582Z,77.07
2022-12-23T14:30:49.399Z,96.63
2022-12-23T14:33:24.681Z,95.85
2022-12-23T14:35:58.586Z,54.10
2022-12-23T14:38:31.483Z,68.18
2022-12-23T14:41:23.645Z,87.97
2022-12-23T14:43:59.875Z,93.85
2022-12-23T14:46:58.607Z,72.18
2022-12-23T14:49:44.225Z,76.40
2022-12-23T14:52:47.856Z,81.97
2022-12-23T14:55:44.601Z,115.45
2022-12-23T14:58:36.341Z,101.18
2022-12-23T15:01:11.786Z,68.47
2022-12-23T15:03:45.964Z,78.68
2022-12-23T15:06:18.400Z,117.18
2022-12-23T15:08:47.231Z,124.20
2022-12-23T15:11:22.289Z,72.43
2022-12-23T15:13:51.874Z,97.60
2022-12-23T15:16:27.458Z,116.93
2022-12-23T15:18:55.963Z,123.30
2022-12-23T15:21:29.524Z,82.32
2022-12-23T15:23:57.052Z,74.25
2022-12-23T15:26:27.704Z,108.63
2022-12-23T15:28:56.088Z,104.63
2022-12-23T15:31:29.709Z,120.70
2022-12-23T15:34:04.032Z,96.55
2022-12-23T15:36:36.081Z,91.80
2022-12-23T15:39:09.854Z,92.35
2022-12-23T15:41:43.507Z,111.60
2022-12-23T15:44:16.387Z,113.10
2022-12-23T15:46:45.460Z,89.07
2022-12-23T15:49:13.578Z,90.43
2022-12-23T15:54:37.082Z,30.15
2022-12-23T15:57:05.759Z,90.72
2022-12-23T15:59:35.909Z,80.95
2022-12-23T16:02:40.457Z,59.25
2022-12-23T16:05:01.508Z,61.28
2022-12-23T16:07:34.622Z,81.07
2022-12-23T16:10:04.522Z,93.03
2022-12-23T16:12:35.237Z,105.93
2022-12-23T16:15:02.751Z,93.55
2022-12-23T16:17:36.202Z,85.22
2022-12-23T16:20:20.032Z,83.45
2022-12-23T16:22:50.390Z,74.60
2022-12-23T16:25:22.286Z,69.70
2022-12-23T16:27:55.821Z,84.25
2022-12-23T16:30:26.439Z,83.97
2022-12-23T16:32:57.183Z,79.80
2022-12-23T16:35:30.753Z,76.78
2022-12-23T16:38:00.614Z,81.90
2022-12-23T16:40:28.105Z,83.07
2022-12-23T16:42:55.700Z,97.47
2022-12-23T16:45:23.176Z,69.78
2022-12-23T16:47:55.591Z,70.70
2022-12-23T16:50:23.163Z,51.03
2022-12-23T16:52:50.772Z,61.53
2022-12-23T16:55:20.291Z,27.42
2022-12-23T16:57:47.776Z,29.92
2022-12-23T17:00:19.370Z,11.18
2022-12-23T17:02:48.647Z,12.13
2022-12-23T17:05:18.769Z,14.07
2022-12-23T17:07:46.634Z,12.35
2022-12-23T17:10:16.449Z,22.42
2022-12-23T17:12:44.947Z,21.17
2022-12-23T17:15:17.981Z,13.38
2022-12-23T17:17:45.633Z,17.00
2022-12-23T17:20:13.812Z,29.42
2022-12-23T17:22:44.626Z,14.45
2022-12-23T17:25:14.223Z,22.55
2022-12-23T17:27:41.777Z,25.45
2022-12-23T17:30:15.769Z,26.55
2022-12-23T17:32:44.055Z,23.70
2022-12-23T17:35:15.928Z,22.20
2022-12-23T17:37:44.750Z,31.48
2022-12-23T17:40:13.121Z,26.30
2022-12-23T17:42:41.499Z,21.95
2022-12-23T17:45:22.369Z,17.25
2022-12-23T17:47:50.034Z,24.83
2022-12-23T17:50:17.688Z,37.35
2022-12-23T17:52:46.565Z,41.33
2022-12-23T17:55:19.823Z,30.48
2022-12-23T17:57:47.658Z,34.67
2022-12-23T18:00:26.527Z,41.72
2022-12-23T18:02:57.323Z,54.70
2022-12-23T18:05:26.390Z,54.30
2022-12-23T18:07:57.091Z,58.45
2022-12-23T18:10:27.030Z,77.28
2022-12-23T18:12:57.033Z,65.45
2022-12-23T18:15:26.220Z,68.60
2022-12-23T18:17:54.297Z,64.97
2022-12-23T18:20:24.443Z,65.43
2022-12-23T18:22:53.775Z,67.22
2022-12-23T18:25:25.017Z,64.65
2022-12-23T18:27:53.758Z,50.03
2022-12-23T18:30:22.686Z,72.85
2022-12-23T18:32:50.224Z,61.28
2022-12-23T18:35:28.129Z,75.68
2022-12-23T18:37:56.111Z,74.90
2022-12-23T18:40:29.332Z,62.35
2022-12-23T18:42:59.983Z,53.90
2022-12-23T18:45:31.840Z,53.67
2022-12-23T18:48:00.294Z,53.92
2022-12-23T18:50:28.693Z,55.88
2022-12-23T18:52:56.408Z,69.72
2022-12-23T18:55:25.800Z,62.33
2022-12-23T18:57:53.326Z,51.40
2022-12-23T19:00:23.438Z,54.58
2022-12-23T19:02:52.624Z,34.42
2022-12-23T19:05:22.689Z,50.50
2022-12-23T19:07:51.350Z,28.33
2022-12-23T19:10:20.565Z,39.42
2022-12-23T19:12:49.806Z,22.00
2022-12-23T19:15:17.650Z,27.13
2022-12-23T19:17:45.183Z,30.98
2022-12-23T19:20:15.099Z,16.35
2022-12-23T19:22:42.747Z,16.25
2022-12-23T19:25:12.803Z,15.07
2022-12-23T19:27:40.666Z,19.05
2022-12-23T19:30:14.701Z,11.20
2022-12-23T19:32:42.194Z,15.27
2022-12-23T19:35:13.646Z,15.65
2022-12-23T19:37:41.197Z,15.73
2022-12-23T19:40:10.359Z,18.27
2022-12-23T19:42:38.433Z,50.58
2022-12-23T19:45:07.743Z,35.38
2022-12-23T19:47:36.784Z,36.83
2022-12-23T19:50:05.378Z,24.48
2022-12-23T19:52:32.874Z,88.05
2022-12-23T19:55:00.371Z,40.70
2022-12-23T19:57:27.938Z,49.83
2022-12-23T19:59:55.439Z,56.92
2022-12-23T20:02:23.443Z,67.25
2022-12-23T20:04:52.305Z,72.93
2022-12-23T20:07:19.839Z,64.50
2022-12-23T20:09:47.316Z,69.63
2022-12-23T20:12:14.830Z,68.97
2022-12-23T20:14:42.361Z,49.38
2022-12-23T20:17:10.158Z,78.85
2022-12-23T20:19:45.468Z,57.65
2022-12-23T20:22:14.825Z,40.40
2022-12-23T20:24:42.333Z,31.60
2022-12-23T20:27:12.135Z,77.35
2022-12-23T20:29:41.449Z,79.70
2022-12-23T20:32:08.954Z,71.57
2022-12-23T20:34:39.630Z,61.85
2022-12-23T20:37:07.816Z,97.22
2022-12-23T20:39:36.718Z,64.45
2022-12-23T20:42:05.004Z,95.57
2022-12-23T20:44:35.137Z,104.63
2022-12-23T20:47:04.041Z,96.25
2022-12-23T20:49:32.093Z,103.25
2022-12-23T20:51:59.592Z,88.20
2022-12-23T20:54:32.772Z,104.10
2022-12-23T20:57:03.705Z,68.43
2022-12-23T20:59:31.346Z,108.75
2022-12-23T21:01:59.324Z,96.05
2022-12-23T21:04:27.223Z,113.57
2022-12-23T21:06:54.759Z,105.03
2022-12-23T21:09:22.311Z,65.72
2022-12-23T21:11:50.610Z,67.05
2022-12-23T21:14:19.455Z,62.97
2022-12-23T21:16:47.088Z,52.35
2022-12-23T21:19:16.986Z,106.28
2022-12-23T21:21:45.008Z,19.48
2022-12-23T21:24:13.059Z,43.83
2022-12-23T21:26:40.585Z,51.53
2022-12-23T21:29:10.167Z,47.53
2022-12-23T21:31:41.493Z,68.75
2022-12-23T21:34:09.514Z,64.03
2022-12-23T21:36:39.264Z,58.10
2022-12-23T21:39:07.713Z,36.92
2022-12-23T21:41:38.058Z,24.20
2022-12-23T21:44:06.616Z,75.72
2022-12-23T21:46:34.478Z,102.72
2022-12-23T21:49:03.497Z,23.58
2022-12-23T21:51:39.526Z,74.95
2022-12-23T21:54:08.699Z,76.82
2022-12-23T21:56:36.454Z,57.45
2022-12-23T21:59:06.454Z,65.97
2022-12-23T22:01:34.095Z,80.45
2022-12-23T22:04:03.773Z,20.63
2022-12-23T22:06:33.175Z,44.55
2022-12-23T22:09:00.731Z,33.40
2022-12-23T22:11:31.276Z,75.55
2022-12-23T22:14:00.314Z,25.67
2022-12-23T22:16:29.920Z,57.25
2022-12-23T22:18:58.646Z,46.90
2022-12-23T22:21:28.807Z,110.53
2022-12-23T22:23:57.107Z,87.18
2022-12-23T22:26:26.462Z,27.58
2022-12-23T22:28:55.234Z,16.05
2022-12-23T22:31:27.393Z,22.20
2022-12-23T22:33:54.979Z,7.20
2022-12-23T22:36:22.589Z,8.00
2022-12-23T22:38:55.598Z,12.65
2022-12-23T22:41:24.250Z,35.05
2022-12-23T22:43:52.205Z,16.75
2022-12-23T22:46:19.947Z,31.75
2022-12-23T22:48:47.622Z,30.23
2022-12-23T22:51:18.452Z,49.95
2022-12-23T22:53:46.520Z,7.35
2022-12-23T22:56:18.163Z,5.70
2022-12-23T22:58:45.858Z,9.05
2022-12-23T23:01:22.457Z,6.53
2022-12-23T23:03:56.556Z,16.30
2022-12-23T23:06:25.085Z,16.35
2022-12-23T23:08:52.799Z,4.70
2022-12-23T23:11:22.533Z,6.57
2022-12-23T23:13:50.047Z,6.53
2022-12-23T23:16:17.601Z,6.88
2022-12-23T23:18:47.400Z,30.13
2022-12-23T23:21:15.671Z,7.40
2022-12-23T23:23:43.229Z,17.33
2022-12-23T23:26:11.526Z,49.28
2022-12-23T23:28:40.982Z,30.17
2022-12-23T23:31:40.430Z,93.45
2022-12-23T23:33:58.112Z,12.45
2022-12-23T23:36:25.886Z,86.90
2022-12-23T23:38:53.549Z,42.88
2022-12-23T23:41:23.861Z,9.95
2022-12-23T23:43:53.164Z,12.82
2022-12-23T23:46:20.805Z,6.15
2022-12-23T23:48:48.426Z,11.73
2022-12-23T23:51:16.038Z,39.50
2022-12-23T23:53:43.574Z,65.60
2022-12-23T23:56:11.267Z,129.93
2022-12-23T23:58:38.953Z,131.50
